Terminal Aerodrome Forecast
Issued by NWS

Home | Current Version | Previous Version | Text Only | Print | Product List | Glossary On
Versions: 1 2 3 4 5 6 7 8 9 10 11 12 13
000
FTUS46 KSEW 021755
TAFOLM
TAF
KOLM 021755Z 0218/0318 21008KT P6SM BKN015
     FM022200 21008KT P6SM SCT020 BKN035 OVC050
     FM030600 21008KT P6SM SCT025 BKN040 BKN060
     FM031400 20005KT P6SM BKN010 OVC040=

USA.gov is the U.S. government's official web portal to all federal, state and local government web resources and services.